Time;durP1;ratioP1;P1;durP2;ratioP2;P2;SDS_P1;SDS_P2;PMS_P1;PMS_P2;Temp;Humidity;BMP_temperature;BMP_pressure;BME280_temperature;BME280_humidity;BME280_pressure;Samples;Min_cycle;Max_cycle;Signal;HPM_P1;HPM_P2
2022/01/03 00:02:24;;;;;;;1.33;0.40;;;-7.00;97.30;;;;;;2215398;64;20097;-30
2022/01/03 00:04:51;;;;;;;0.63;0.30;;;-7.10;97.80;;;;;;2215383;64;20134;-29
2022/01/03 00:07:19;;;;;;;5.80;0.50;;;-7.10;98.10;;;;;;2215390;64;20077;-29
2022/01/03 00:09:47;;;;;;;1.13;0.57;;;-7.10;97.80;;;;;;2215555;64;20142;-30
2022/01/03 00:12:13;;;;;;;1.83;0.60;;;-7.10;97.90;;;;;;2215296;64;20247;-36
2022/01/03 00:14:40;;;;;;;1.27;0.40;;;-7.10;97.90;;;;;;2212420;64;20097;-31
2022/01/03 00:17:07;;;;;;;1.87;0.50;;;-7.10;97.70;;;;;;2208148;64;20178;-30
2022/01/03 00:19:39;;;;;;;1.07;0.40;;;-7.10;98.00;;;;;;2211664;64;20098;-30
2022/01/03 00:22:06;;;;;;;1.33;0.50;;;-7.10;98.30;;;;;;2211408;64;20093;-37
2022/01/03 00:24:35;;;;;;;1.67;0.60;;;-7.10;98.20;;;;;;2211634;64;20082;-30
2022/01/03 00:27:04;;;;;;;1.47;0.40;;;-7.10;98.20;;;;;;2215309;64;20105;-30
2022/01/03 00:29:40;;;;;;;1.13;0.47;;;-7.10;98.60;;;;;;2215512;64;20084;-31
2022/01/03 00:32:07;;;;;;;1.43;0.73;;;-7.20;98.90;;;;;;2212188;64;20454;-30
2022/01/03 00:34:33;;;;;;;2.00;0.70;;;-7.20;99.20;;;;;;2215510;64;20077;-30
2022/01/03 00:37:00;;;;;;;1.10;0.40;;;-7.10;98.50;;;;;;2212267;64;20573;-30
2022/01/03 00:39:27;;;;;;;1.60;0.60;;;-7.20;98.90;;;;;;2212230;64;20081;-30
2022/01/03 00:41:54;;;;;;;1.30;0.40;;;-7.10;98.80;;;;;;2215217;64;20632;-33
2022/01/03 00:44:20;;;;;;;1.03;0.40;;;-7.20;98.90;;;;;;2215422;64;20123;-30
2022/01/03 00:46:47;;;;;;;1.17;0.50;;;-7.20;98.70;;;;;;2212244;64;20081;-31
2022/01/03 00:49:13;;;;;;;1.30;0.57;;;-7.20;99.20;;;;;;2219990;64;20534;-29
2022/01/03 00:51:40;;;;;;;1.63;0.50;;;-7.20;99.10;;;;;;2221000;64;20084;-29
2022/01/03 00:54:08;;;;;;;0.77;0.23;;;-7.20;99.30;;;;;;2220829;64;20101;-30
2022/01/03 00:56:43;;;;;;;0.40;0.30;;;-7.20;99.10;;;;;;2220874;64;20135;-44
2022/01/03 00:59:36;;;;;;;0.60;0.40;;;-7.20;99.50;;;;;;2220088;64;20548;-40
2022/01/03 01:02:03;;;;;;;1.37;0.47;;;-7.20;99.20;;;;;;2221022;64;20165;-30
2022/01/03 01:04:29;;;;;;;0.90;0.53;;;-7.20;99.20;;;;;;2220761;64;20533;-30
2022/01/03 01:06:59;;;;;;;1.00;0.40;;;-7.30;99.30;;;;;;2220950;64;20464;-30
2022/01/03 01:09:27;;;;;;;2.00;1.00;;;-7.30;99.40;;;;;;2218893;64;20603;-30
2022/01/03 01:11:54;;;;;;;1.67;0.60;;;-7.30;99.40;;;;;;2219204;64;20093;-30
2022/01/03 01:14:22;;;;;;;1.90;0.60;;;-7.30;99.60;;;;;;2219009;64;20108;-29
2022/01/03 01:16:48;;;;;;;2.50;0.70;;;-7.30;99.60;;;;;;2219280;64;20084;-31
2022/01/03 01:19:17;;;;;;;0.97;0.50;;;-7.30;99.80;;;;;;2215817;64;20607;-31
2022/01/03 01:21:44;;;;;;;1.00;0.50;;;-7.30;99.50;;;;;;2215696;64;20108;-31
2022/01/03 01:24:10;;;;;;;1.13;0.50;;;-7.30;99.60;;;;;;2215696;64;20093;-32
2022/01/03 01:29:22;;;;;;;1.73;0.38;;;-7.30;99.80;;;;;;2212607;64;20111;-30
2022/01/03 01:31:51;;;;;;;3.00;0.47;;;-7.30;99.90;;;;;;2215300;64;20156;-31
2022/01/03 01:34:22;;;;;;;0.97;0.43;;;-7.30;99.90;;;;;;2215241;64;20104;-29
2022/01/03 01:36:53;;;;;;;2.57;0.73;;;-7.30;99.70;;;;;;2215073;64;20123;-31
2022/01/03 01:39:20;;;;;;;0.77;0.50;;;-7.30;99.80;;;;;;2215380;64;20124;-32
2022/01/03 01:41:48;;;;;;;1.30;0.40;;;-7.30;99.90;;;;;;2220239;64;20491;-30
2022/01/03 01:44:15;;;;;;;0.93;0.40;;;-7.40;99.90;;;;;;2216974;64;20099;-29
2022/01/03 01:46:46;;;;;;;0.97;0.40;;;-7.30;99.90;;;;;;2220526;64;20084;-30
2022/01/03 01:49:18;;;;;;;1.67;0.60;;;-7.40;99.90;;;;;;2220036;64;20584;-29
2022/01/03 01:51:50;;;;;;;3.83;0.50;;;-7.40;99.90;;;;;;2220590;64;20092;-30
2022/01/03 01:54:17;;;;;;;0.50;0.30;;;-7.40;99.90;;;;;;2220050;64;20573;-29
2022/01/03 01:56:55;;;;;;;0.67;0.50;;;-7.40;99.90;;;;;;2220478;64;20456;-31
2022/01/03 01:59:45;;;;;;;1.80;0.60;;;-7.40;99.50;;;;;;2214983;64;20507;-30
2022/01/03 02:02:16;;;;;;;4.00;0.90;;;-7.40;99.70;;;;;;2209115;64;20093;-30
2022/01/03 02:04:52;;;;;;;0.57;0.30;;;-7.40;99.60;;;;;;2208862;64;20084;-36
2022/01/03 02:07:36;;;;;;;1.10;0.47;;;-7.50;99.60;;;;;;2214977;64;20500;-29
2022/01/03 02:10:03;;;;;;;0.80;0.30;;;-7.50;99.50;;;;;;2215174;64;20735;-30
2022/01/03 02:12:30;;;;;;;1.07;0.50;;;-7.50;99.40;;;;;;2214921;64;20583;-30
2022/01/03 02:14:58;;;;;;;2.07;0.60;;;-7.50;99.10;;;;;;2215018;64;20093;-34
2022/01/03 02:17:27;;;;;;;0.77;0.40;;;-7.50;99.00;;;;;;2208776;64;20081;-31
2022/01/03 02:20:11;;;;;;;0.40;0.30;;;-7.50;98.80;;;;;;2215077;64;20093;-29
2022/01/03 02:22:41;;;;;;;3.70;0.93;;;-7.60;98.70;;;;;;2215224;64;20661;-30
2022/01/03 02:25:11;;;;;;;1.90;0.60;;;-7.60;98.70;;;;;;2215268;64;20112;-30
2022/01/03 02:27:37;;;;;;;2.30;0.63;;;-7.60;98.60;;;;;;2204021;64;20644;-31
2022/01/03 02:30:09;;;;;;;1.77;0.50;;;-7.60;99.00;;;;;;2206657;64;20089;-30
2022/01/03 02:32:36;;;;;;;1.97;0.40;;;-7.70;98.90;;;;;;2214943;64;20085;-32
2022/01/03 02:35:03;;;;;;;2.57;0.70;;;-7.60;98.60;;;;;;2215677;64;20174;-35
2022/01/03 02:37:30;;;;;;;3.17;0.70;;;-7.70;99.20;;;;;;2215772;64;20239;-34
2022/01/03 02:39:57;;;;;;;0.10;0.10;;;-7.70;99.40;;;;;;2215662;64;20101;-34
2022/01/03 02:42:25;;;;;;;3.10;0.60;;;-7.70;98.70;;;;;;2215775;64;20730;-29
2022/01/03 02:45:06;;;;;;;3.30;0.50;;;-7.70;98.90;;;;;;2215797;64;20531;-30
2022/01/03 02:47:32;;;;;;;1.70;0.70;;;-7.80;98.80;;;;;;2215479;64;20089;-30
2022/01/03 02:49:59;;;;;;;1.37;0.60;;;-7.70;98.80;;;;;;2215939;64;20081;-31
2022/01/03 02:52:25;;;;;;;2.53;1.00;;;-7.80;98.60;;;;;;2215588;64;20113;-32
2022/01/03 02:54:52;;;;;;;1.40;0.47;;;-7.80;99.20;;;;;;2215653;64;20642;-30
2022/01/03 02:57:23;;;;;;;1.27;0.40;;;-7.70;98.40;;;;;;2212198;64;20446;-30
2022/01/03 02:59:56;;;;;;;2.53;0.70;;;-7.70;98.60;;;;;;2215537;64;20097;-29
2022/01/03 03:02:25;;;;;;;0.90;0.30;;;-7.80;98.50;;;;;;2212305;64;20492;-32
2022/01/03 03:04:58;;;;;;;3.40;0.60;;;-7.80;97.70;;;;;;2217563;64;20093;-28
2022/01/03 03:07:34;;;;;;;2.77;0.70;;;-7.80;97.90;;;;;;2221017;64;20131;-29
2022/01/03 03:10:00;;;;;;;2.10;0.50;;;-7.80;97.70;;;;;;2221279;64;20085;-31
2022/01/03 03:12:28;;;;;;;0.93;0.40;;;-7.80;98.50;;;;;;2221045;64;20081;-40
2022/01/03 03:14:54;;;;;;;1.97;0.63;;;-7.80;98.60;;;;;;2221173;64;20104;-30
2022/01/03 03:17:21;;;;;;;2.77;0.70;;;-7.80;98.30;;;;;;2221025;64;20089;-31
2022/01/03 03:19:56;;;;;;;0.50;0.30;;;-7.80;98.00;;;;;;2220392;64;20087;-30
2022/01/03 03:22:24;;;;;;;1.10;0.47;;;-7.90;98.10;;;;;;2220905;64;20152;-31
2022/01/03 03:24:50;;;;;;;0.87;0.60;;;-7.80;98.00;;;;;;2221135;64;20147;-30
2022/01/03 03:27:17;;;;;;;1.73;0.70;;;-7.80;98.10;;;;;;2221131;64;20174;-30
2022/01/03 03:29:48;;;;;;;1.40;0.50;;;-7.80;98.50;;;;;;2221280;64;20119;-43
2022/01/03 03:32:15;;;;;;;2.63;0.63;;;-7.80;98.60;;;;;;2213268;64;20108;-33
2022/01/03 03:34:42;;;;;;;1.37;0.50;;;-7.80;98.50;;;;;;2220552;64;20077;-29
2022/01/03 03:37:09;;;;;;;3.37;0.60;;;-7.80;98.40;;;;;;2221043;64;20138;-31
2022/01/03 03:39:36;;;;;;;1.20;0.40;;;-7.80;98.70;;;;;;2221178;64;20085;-30
2022/01/03 03:42:04;;;;;;;3.13;0.77;;;-7.80;98.30;;;;;;2220919;64;20111;-31
2022/01/03 03:44:30;;;;;;;1.33;0.53;;;-7.80;98.60;;;;;;2220974;64;20096;-30
2022/01/03 03:46:57;;;;;;;0.30;0.20;;;-7.80;98.70;;;;;;2220877;64;20133;-31
2022/01/03 03:49:23;;;;;;;0.83;0.47;;;-7.90;98.80;;;;;;2221116;64;20084;-30
2022/01/03 03:51:50;;;;;;;4.27;0.80;;;-7.80;98.90;;;;;;2223615;64;20092;-30
2022/01/03 03:54:16;;;;;;;0.33;0.23;;;-7.90;99.00;;;;;;2220428;64;20143;-31
2022/01/03 03:56:43;;;;;;;1.80;0.60;;;-7.90;99.10;;;;;;2220919;64;20135;-30
2022/01/03 03:59:10;;;;;;;1.07;0.40;;;-7.90;99.00;;;;;;2220159;64;20096;-30
2022/01/03 04:01:37;;;;;;;4.53;0.60;;;-7.90;99.20;;;;;;2220931;64;20100;-31
2022/01/03 04:04:04;;;;;;;1.10;0.50;;;-7.90;99.20;;;;;;2220894;64;20077;-33
2022/01/03 04:06:31;;;;;;;0.87;0.50;;;-7.90;99.30;;;;;;2220921;64;20197;-30
2022/01/03 04:08:58;;;;;;;1.47;0.70;;;-7.90;99.70;;;;;;2220325;64;20549;-34
2022/01/03 04:11:25;;;;;;;3.40;0.70;;;-7.90;99.90;;;;;;2221122;64;20088;-32
2022/01/03 04:13:52;;;;;;;1.70;0.60;;;-7.90;99.90;;;;;;2220978;64;20164;-36
2022/01/03 04:16:20;;;;;;;2.40;0.70;;;-7.90;99.90;;;;;;2221140;64;20241;-31
2022/01/03 04:18:46;;;;;;;2.80;0.70;;;-7.90;99.90;;;;;;2220973;64;20084;-31
2022/01/03 04:21:12;;;;;;;1.90;0.60;;;-7.90;99.90;;;;;;2221114;64;20116;-31
2022/01/03 04:23:39;;;;;;;2.97;1.03;;;-7.90;99.90;;;;;;2220880;64;20169;-36
2022/01/03 04:26:06;;;;;;;2.60;1.03;;;-7.90;99.90;;;;;;2220865;64;20733;-28
2022/01/03 04:28:33;;;;;;;3.30;1.00;;;-7.90;99.90;;;;;;2221014;64;20527;-32
2022/01/03 04:30:59;;;;;;;2.73;0.60;;;-7.90;99.90;;;;;;2220935;64;20108;-35
2022/01/03 04:33:26;;;;;;;1.80;0.87;;;-7.90;99.90;;;;;;2220782;64;20096;-31
2022/01/03 04:35:52;;;;;;;2.77;1.13;;;-7.90;99.90;;;;;;2220977;64;20085;-31
2022/01/03 04:38:19;;;;;;;4.53;1.30;;;-7.90;99.90;;;;;;2220708;64;20236;-31
2022/01/03 04:40:46;;;;;;;2.10;0.87;;;-8.00;99.90;;;;;;2221093;64;20615;-31
2022/01/03 04:43:13;;;;;;;3.30;0.80;;;-8.00;99.90;;;;;;2220785;64;20557;-34
2022/01/03 04:45:40;;;;;;;3.27;0.90;;;-8.00;99.90;;;;;;2221004;64;20186;-31
2022/01/03 04:48:07;;;;;;;2.13;0.87;;;-8.00;99.90;;;;;;2220832;64;20173;-30
2022/01/03 04:50:33;;;;;;;5.73;1.80;;;-8.00;99.30;;;;;;2219004;64;20176;-30
2022/01/03 04:53:01;;;;;;;3.03;1.00;;;-8.00;99.10;;;;;;2219017;64;20143;-31
2022/01/03 04:55:28;;;;;;;2.57;0.80;;;-8.00;99.20;;;;;;2215829;64;20089;-31
2022/01/03 04:57:55;;;;;;;1.13;0.60;;;-8.10;98.70;;;;;;2218976;64;20100;-29
2022/01/03 05:00:22;;;;;;;3.80;0.80;;;-8.10;98.90;;;;;;2219159;64;20480;-32
2022/01/03 05:02:51;;;;;;;2.93;0.90;;;-8.00;98.40;;;;;;2218972;64;20096;-31
2022/01/03 05:05:18;;;;;;;1.50;0.70;;;-8.10;98.80;;;;;;2219153;64;20084;-39
2022/01/03 05:07:46;;;;;;;1.80;0.70;;;-8.10;99.20;;;;;;2219129;64;20120;-30
2022/01/03 05:10:12;;;;;;;1.73;0.70;;;-8.10;99.30;;;;;;2219227;64;20153;-31
2022/01/03 05:12:39;;;;;;;2.87;1.23;;;-8.10;99.60;;;;;;2219144;64;20138;-31
2022/01/03 05:15:06;;;;;;;1.73;0.87;;;-8.10;99.60;;;;;;2219057;64;20099;-35
2022/01/03 05:17:33;;;;;;;2.70;1.20;;;-8.10;99.90;;;;;;2219010;64;20270;-29
2022/01/03 05:20:00;;;;;;;2.40;0.80;;;-8.10;99.90;;;;;;2216018;64;20092;-32
2022/01/03 05:22:28;;;;;;;1.97;0.40;;;-8.20;99.80;;;;;;2218892;64;20077;-32
2022/01/03 05:24:55;;;;;;;0.93;0.33;;;-8.20;99.70;;;;;;2218946;64;20506;-43
2022/01/03 05:27:21;;;;;;;1.27;0.67;;;-8.20;99.50;;;;;;2219287;64;20096;-30
2022/01/03 05:29:55;;;;;;;0.83;0.60;;;-8.20;99.40;;;;;;2220158;64;20172;-31
2022/01/03 05:32:24;;;;;;;2.80;1.10;;;-8.20;99.20;;;;;;2220543;64;20111;-32
2022/01/03 05:34:50;;;;;;;3.67;1.30;;;-8.20;99.30;;;;;;2220666;64;20088;-46
2022/01/03 05:37:17;;;;;;;0.80;0.40;;;-8.20;98.40;;;;;;2220791;64;20742;-31
2022/01/03 05:39:44;;;;;;;3.43;0.63;;;-8.10;98.40;;;;;;2220688;64;20560;-31
2022/01/03 05:42:19;;;;;;;1.47;0.80;;;-8.20;98.50;;;;;;2220679;64;20468;-30
2022/01/03 05:44:46;;;;;;;2.13;0.60;;;-8.20;98.60;;;;;;2220078;64;20102;-30
2022/01/03 05:47:15;;;;;;;3.43;1.47;;;-8.20;99.00;;;;;;2220605;64;20117;-30
2022/01/03 05:49:44;;;;;;;4.00;1.17;;;-8.30;99.20;;;;;;2220610;64;20111;-32
2022/01/03 05:52:10;;;;;;;1.30;0.53;;;-8.30;99.30;;;;;;2220532;64;20097;-29
2022/01/03 05:54:37;;;;;;;1.97;0.83;;;-8.30;99.20;;;;;;2220590;64;20507;-31
2022/01/03 05:57:03;;;;;;;1.40;0.43;;;-8.40;99.30;;;;;;2220412;64;20147;-30
2022/01/03 05:59:30;;;;;;;2.60;0.80;;;-8.40;99.50;;;;;;2220758;64;20107;-30
2022/01/03 06:01:56;;;;;;;2.40;1.00;;;-8.40;99.40;;;;;;2220428;64;20100;-31
2022/01/03 06:04:35;;;;;;;0.87;0.60;;;-8.50;99.20;;;;;;2220750;64;20578;-34
2022/01/03 06:07:08;;;;;;;4.57;1.03;;;-8.50;99.50;;;;;;2220474;64;20084;-32
2022/01/03 06:09:39;;;;;;;4.20;0.60;;;-8.50;99.30;;;;;;2219906;64;20695;-31
2022/01/03 06:12:06;;;;;;;2.10;0.40;;;-8.60;99.10;;;;;;2220635;64;20111;-36
2022/01/03 06:14:33;;;;;;;1.73;0.67;;;-8.70;98.70;;;;;;2220752;64;20557;-34
2022/01/03 06:17:00;;;;;;;2.03;0.57;;;-8.70;98.50;;;;;;2219835;64;20096;-32
2022/01/03 06:19:27;;;;;;;2.17;0.93;;;-8.80;98.50;;;;;;2220640;64;20099;-31
2022/01/03 06:21:56;;;;;;;1.77;0.63;;;-8.80;98.20;;;;;;2219688;64;20092;-44
2022/01/03 06:24:26;;;;;;;2.73;1.00;;;-8.90;98.00;;;;;;2219897;64;20092;-30
2022/01/03 06:26:53;;;;;;;2.13;0.83;;;-8.90;97.90;;;;;;2220376;64;20161;-32
2022/01/03 06:29:22;;;;;;;1.27;0.23;;;-8.80;98.10;;;;;;2216728;64;20111;-32
2022/01/03 06:31:51;;;;;;;2.53;1.07;;;-8.80;97.30;;;;;;2215502;64;20528;-31
2022/01/03 06:34:20;;;;;;;1.10;0.63;;;-8.70;97.20;;;;;;2218792;64;20156;-32
2022/01/03 06:36:49;;;;;;;2.83;1.10;;;-8.50;97.20;;;;;;2218731;64;20576;-30
2022/01/03 06:39:17;;;;;;;7.80;0.97;;;-8.00;97.70;;;;;;2218982;64;20166;-31
2022/01/03 06:41:44;;;;;;;4.30;1.20;;;-8.20;95.80;;;;;;2218739;64;20529;-31
2022/01/03 06:44:11;;;;;;;2.00;0.70;;;-8.20;96.10;;;;;;2218871;64;20102;-37
2022/01/03 06:46:42;;;;;;;1.00;0.30;;;-8.10;95.70;;;;;;2218669;64;20173;-30
2022/01/03 06:49:10;;;;;;;4.37;0.83;;;-8.10;94.80;;;;;;2219047;64;20095;-30
2022/01/03 06:51:39;;;;;;;1.87;0.77;;;-7.90;95.20;;;;;;2215566;64;20093;-31
2022/01/03 06:54:06;;;;;;;2.60;0.60;;;-8.00;93.80;;;;;;2218756;64;20093;-32
2022/01/03 06:56:34;;;;;;;2.63;1.10;;;-8.20;94.00;;;;;;2218537;64;20108;-29
2022/01/03 06:59:04;;;;;;;7.43;1.43;;;-7.90;94.50;;;;;;2218835;64;20112;-31
2022/01/03 07:01:33;;;;;;;2.90;1.07;;;-7.90;94.40;;;;;;2218475;64;20104;-30
2022/01/03 07:04:00;;;;;;;0.70;0.30;;;-7.70;94.50;;;;;;2218886;64;20100;-32
2022/01/03 07:06:39;;;;;;;3.27;1.10;;;-7.50;92.60;;;;;;2218603;64;20084;-30
2022/01/03 07:09:11;;;;;;;1.57;0.30;;;-7.60;92.90;;;;;;2219197;64;20095;-30
2022/01/03 07:11:39;;;;;;;3.10;0.70;;;-7.70;92.10;;;;;;2220251;64;20104;-31
2022/01/03 07:19:57;;;;;;;3.53;0.60;;;-7.00;92.40;;;;;;2220458;64;20111;-32
2022/01/03 07:22:28;;;;;;;2.70;0.50;;;-6.70;94.70;;;;;;2220679;64;20548;-30
2022/01/03 07:24:55;;;;;;;3.83;0.80;;;-6.60;91.10;;;;;;2221029;64;20088;-30
2022/01/03 07:27:23;;;;;;;1.63;0.67;;;-6.70;91.30;;;;;;2221130;64;20243;-33
2022/01/03 07:29:51;;;;;;;2.60;1.10;;;-6.90;91.30;;;;;;2220306;64;20096;-39
2022/01/03 07:32:20;;;;;;;0.90;0.60;;;-6.60;91.60;;;;;;2220495;64;20092;-31
2022/01/03 07:34:49;;;;;;;1.53;0.50;;;-7.00;90.80;;;;;;2220128;64;20088;-31
2022/01/03 07:37:18;;;;;;;1.80;0.80;;;-7.30;90.30;;;;;;2220920;64;20085;-31
2022/01/03 07:39:46;;;;;;;1.70;0.80;;;-6.50;92.60;;;;;;2220822;64;20085;-29
2022/01/03 07:42:17;;;;;;;4.77;0.87;;;-7.00;90.80;;;;;;2221005;64;20174;-30
2022/01/03 07:44:48;;;;;;;3.90;1.00;;;-6.60;91.00;;;;;;2220888;64;20592;-30
2022/01/03 07:47:14;;;;;;;2.70;0.70;;;-6.60;91.20;;;;;;2221092;64;20099;-29
2022/01/03 07:49:54;;;;;;;1.50;0.77;;;-6.70;90.00;;;;;;2221001;64;20629;-28
2022/01/03 07:52:21;;;;;;;1.93;0.73;;;-6.80;90.50;;;;;;2220826;64;20104;-29
2022/01/03 07:54:52;;;;;;;2.73;1.20;;;-6.70;90.70;;;;;;2220913;64;20091;-30
2022/01/03 07:57:24;;;;;;;1.77;0.70;;;-6.90;93.40;;;;;;2221019;64;20551;-30
2022/01/03 07:59:52;;;;;;;1.43;0.70;;;-7.00;90.60;;;;;;2220952;64;20092;-32
2022/01/03 08:02:19;;;;;;;2.20;0.60;;;-6.60;92.80;;;;;;2220901;64;20174;-31
2022/01/03 08:04:46;;;;;;;2.03;0.83;;;-6.90;91.20;;;;;;2220849;64;20077;-31
2022/01/03 08:07:13;;;;;;;2.63;1.13;;;-6.90;91.70;;;;;;2221068;64;20553;-32
2022/01/03 08:09:43;;;;;;;2.40;1.10;;;-6.70;92.60;;;;;;2220840;64;20096;-32
2022/01/03 08:12:11;;;;;;;5.30;1.20;;;-6.50;92.70;;;;;;2220766;64;20480;-36
2022/01/03 08:14:38;;;;;;;4.77;1.00;;;-6.70;91.40;;;;;;2220320;64;20092;-33
2022/01/03 08:17:07;;;;;;;3.10;0.87;;;-7.10;90.60;;;;;;2220980;64;20093;-34
2022/01/03 08:19:37;;;;;;;2.87;1.00;;;-7.10;90.80;;;;;;2220846;64;20167;-38
2022/01/03 08:22:06;;;;;;;2.23;1.07;;;-6.80;91.50;;;;;;2220811;64;20124;-32
2022/01/03 08:24:37;;;;;;;2.83;0.70;;;-7.20;91.40;;;;;;2219996;64;20103;-34
2022/01/03 08:27:06;;;;;;;2.03;1.03;;;-7.30;92.30;;;;;;2220933;64;20487;-32
2022/01/03 08:29:37;;;;;;;4.60;0.80;;;-7.20;91.50;;;;;;2220285;64;20618;-32
2022/01/03 08:32:05;;;;;;;1.27;0.50;;;-7.10;91.60;;;;;;2220141;64;20096;-34
2022/01/03 08:34:35;;;;;;;4.40;1.57;;;-7.10;90.60;;;;;;2220922;64;20085;-34
2022/01/03 08:37:04;;;;;;;2.03;0.90;;;-7.20;91.40;;;;;;2220946;64;20077;-33
2022/01/03 08:39:32;;;;;;;3.50;1.00;;;-6.90;91.60;;;;;;2220789;64;20189;-39
2022/01/03 08:42:02;;;;;;;0.83;0.40;;;-7.00;90.60;;;;;;2220683;64;20442;-33
2022/01/03 08:44:30;;;;;;;2.37;0.70;;;-7.50;90.10;;;;;;2220808;64;20089;-32
2022/01/03 08:47:01;;;;;;;2.27;0.70;;;-7.40;90.90;;;;;;2221009;64;20100;-32
2022/01/03 08:49:31;;;;;;;4.00;0.67;;;-7.30;91.60;;;;;;2220760;64;20076;-31
2022/01/03 08:52:01;;;;;;;2.50;0.50;;;-7.20;90.80;;;;;;2220861;64;20111;-32
2022/01/03 08:54:31;;;;;;;3.17;1.03;;;-7.40;90.90;;;;;;2220187;64;20098;-31
2022/01/03 08:57:00;;;;;;;1.63;0.50;;;-7.10;90.70;;;;;;2220019;64;20542;-32
2022/01/03 08:59:29;;;;;;;2.37;0.60;;;-7.20;89.90;;;;;;2220584;64;20101;-31
2022/01/03 09:01:58;;;;;;;2.10;1.07;;;-7.30;90.70;;;;;;2220742;64;20092;-31
2022/01/03 09:04:28;;;;;;;0.73;0.40;;;-7.40;91.40;;;;;;2220717;64;20100;-32
2022/01/03 09:06:59;;;;;;;1.97;1.00;;;-7.50;90.90;;;;;;2220270;64;20429;-32
2022/01/03 09:09:30;;;;;;;3.10;0.80;;;-7.50;90.80;;;;;;2220697;64;20091;-32
2022/01/03 09:12:02;;;;;;;2.63;1.00;;;-7.50;91.10;;;;;;2220858;64;20111;-31
2022/01/03 09:14:32;;;;;;;3.17;0.83;;;-7.50;91.90;;;;;;2219939;64;20475;-33
2022/01/03 09:17:01;;;;;;;2.37;0.60;;;-7.60;91.10;;;;;;2220825;64;20084;-32
2022/01/03 09:19:31;;;;;;;0.63;0.63;;;-7.50;91.10;;;;;;2220821;64;20156;-32
2022/01/03 09:22:11;;;;;;;1.77;0.60;;;-7.50;90.70;;;;;;2220763;64;20107;-32
2022/01/03 09:24:47;;;;;;;2.40;0.80;;;-7.70;90.60;;;;;;2220580;64;20104;-31
2022/01/03 09:30:03;;;;;;;1.37;0.77;;;-7.50;90.80;;;;;;2220742;64;20111;-31
2022/01/03 09:32:32;;;;;;;4.43;0.87;;;-7.40;90.90;;;;;;2220651;64;20081;-31
2022/01/03 09:35:00;;;;;;;5.47;0.90;;;-7.40;91.30;;;;;;2220727;64;20092;-34
2022/01/03 09:37:28;;;;;;;2.73;0.70;;;-7.50;92.20;;;;;;2220344;64;20088;-31
2022/01/03 09:39:58;;;;;;;2.97;1.20;;;-7.40;90.70;;;;;;2220734;64;20093;-34
2022/01/03 09:42:31;;;;;;;0.20;0.20;;;-7.50;91.20;;;;;;2220444;64;20169;-34
2022/01/03 09:45:14;;;;;;;3.33;1.52;;;-7.80;90.50;;;;;;2220711;64;20253;-31
2022/01/03 09:47:46;;;;;;;2.67;1.17;;;-7.70;91.70;;;;;;2220495;64;20527;-32
2022/01/03 09:50:21;;;;;;;4.73;1.17;;;-7.70;91.90;;;;;;2215714;64;20092;-36
2022/01/03 09:52:50;;;;;;;2.25;0.90;;;-7.70;92.10;;;;;;2218816;64;20146;-33
2022/01/03 09:55:18;;;;;;;2.13;0.60;;;-7.80;91.50;;;;;;2218900;64;20472;-33
2022/01/03 09:57:59;;;;;;;2.47;1.00;;;-7.70;91.10;;;;;;2201100;64;20501;-31
2022/01/03 10:00:32;;;;;;;1.70;0.50;;;-7.70;91.60;;;;;;2204391;64;20593;-31
2022/01/03 10:03:04;;;;;;;3.20;1.33;;;-7.80;91.30;;;;;;2204164;64;20555;-36
2022/01/03 10:05:37;;;;;;;3.37;1.20;;;-7.50;92.10;;;;;;2207305;64;20106;-31
2022/01/03 10:08:17;;;;;;;2.43;0.63;;;-7.50;91.10;;;;;;2204207;64;20074;-32
2022/01/03 10:10:56;;;;;;;4.70;0.70;;;-7.50;90.90;;;;;;2204250;64;20187;-33
2022/01/03 10:13:31;;;;;;;1.53;0.87;;;-7.60;91.00;;;;;;2204313;64;20101;-41
2022/01/03 10:16:06;;;;;;;2.87;0.60;;;-7.50;90.90;;;;;;2207468;64;20097;-32
2022/01/03 10:18:42;;;;;;;3.37;0.90;;;-7.80;90.60;;;;;;2204227;64;20537;-42
2022/01/03 10:21:38;;;;;;;2.10;0.82;;;-7.70;92.00;;;;;;2204059;64;20607;-33
2022/01/03 10:24:17;;;;;;;1.60;0.53;;;-7.50;90.60;;;;;;2204397;64;20124;-32
2022/01/03 10:26:57;;;;;;;2.33;0.80;;;-7.80;90.20;;;;;;2204233;64;20498;-31
2022/01/03 10:29:37;;;;;;;3.60;1.20;;;-7.70;91.60;;;;;;2204316;64;20089;-31
2022/01/03 10:32:16;;;;;;;2.55;0.80;;;-7.70;90.20;;;;;;2203365;65;20106;-33
2022/01/03 10:34:50;;;;;;;1.73;0.77;;;-7.50;90.90;;;;;;2203931;64;20089;-33
2022/01/03 10:37:36;;;;;;;2.47;0.47;;;-7.50;91.40;;;;;;2201191;64;20090;-33
2022/01/03 10:40:29;;;;;;;1.80;1.30;;;-7.80;89.70;;;;;;2204293;64;20601;-43
2022/01/03 10:43:16;;;;;;;2.30;0.63;;;-7.60;91.10;;;;;;2207550;64;20105;-33
2022/01/03 10:45:51;;;;;;;3.27;1.10;;;-7.90;90.70;;;;;;2208091;64;20137;-32
2022/01/03 10:48:37;;;;;;;2.63;1.02;;;-7.60;90.50;;;;;;2207790;64;20089;-34
2022/01/03 10:51:12;;;;;;;1.60;0.60;;;-7.70;90.60;;;;;;2210972;64;20116;-32
2022/01/03 10:53:47;;;;;;;1.33;0.50;;;-8.10;90.20;;;;;;2207776;64;20533;-34
2022/01/03 10:56:38;;;;;;;1.10;0.50;;;-8.00;91.20;;;;;;2211539;64;20085;-33
2022/01/03 10:59:18;;;;;;;1.07;0.63;;;-7.80;91.30;;;;;;2208402;64;20090;-31
2022/01/03 11:02:04;;;;;;;1.70;0.90;;;-8.20;90.80;;;;;;2208394;64;20574;-33
2022/01/03 11:04:56;;;;;;;2.93;1.10;;;-8.30;91.60;;;;;;2211581;64;20097;-32
2022/01/03 11:13:16;;;;;;;2.60;1.10;;;-8.40;92.20;;;;;;2216700;64;20149;-32
2022/01/03 11:15:53;;;;;;;4.93;1.20;;;-8.40;91.70;;;;;;2216519;64;20097;-33
2022/01/03 11:18:30;;;;;;;3.93;0.60;;;-8.30;91.40;;;;;;2216650;64;20085;-32
2022/01/03 11:21:14;;;;;;;0.90;0.50;;;-8.30;91.30;;;;;;2219553;64;20097;-37
2022/01/03 11:24:08;;;;;;;3.37;1.10;;;-8.30;91.80;;;;;;2216547;64;20192;-34
2022/01/03 11:26:50;;;;;;;0.90;0.40;;;-8.40;91.90;;;;;;2216836;64;20098;-36
2022/01/03 11:29:22;;;;;;;2.43;0.77;;;-8.40;91.70;;;;;;2220358;64;20560;-33
2022/01/03 11:31:59;;;;;;;3.50;0.60;;;-8.50;91.70;;;;;;2220392;64;20833;-32
2022/01/03 11:34:33;;;;;;;3.07;1.00;;;-8.60;91.80;;;;;;2217478;64;20093;-33
2022/01/03 11:37:11;;;;;;;4.17;0.60;;;-8.60;92.30;;;;;;2217598;64;20103;-40
2022/01/03 11:39:45;;;;;;;2.13;0.80;;;-8.70;92.00;;;;;;2220390;64;20456;-31
2022/01/03 11:42:22;;;;;;;2.03;0.80;;;-8.70;92.50;;;;;;2217073;64;20440;-32
2022/01/03 11:44:59;;;;;;;1.23;0.70;;;-8.70;92.40;;;;;;2217365;64;20096;-34
2022/01/03 11:47:36;;;;;;;2.77;1.07;;;-8.70;91.60;;;;;;2220321;64;20635;-37
2022/01/03 11:50:11;;;;;;;3.13;1.10;;;-8.70;92.50;;;;;;2220346;64;20156;-34
2022/01/03 11:52:47;;;;;;;3.23;1.03;;;-8.70;91.80;;;;;;2220273;64;20107;-35
2022/01/03 11:55:19;;;;;;;3.20;1.67;;;-8.80;92.00;;;;;;2220217;64;20093;-34
2022/01/03 12:03:39;;;;;;;3.07;1.00;;;-8.90;92.30;;;;;;2220624;64;20108;-34
2022/01/03 12:06:11;;;;;;;3.45;1.02;;;-8.90;92.40;;;;;;2217622;64;20092;-32
2022/01/03 12:08:43;;;;;;;3.20;1.33;;;-9.20;92.40;;;;;;2220078;64;20096;-36
2022/01/03 12:11:23;;;;;;;4.60;1.10;;;-9.30;92.80;;;;;;2213891;64;20104;-33
2022/01/03 12:13:57;;;;;;;4.37;1.27;;;-9.40;92.70;;;;;;2220208;64;20511;-34
2022/01/03 12:16:44;;;;;;;3.40;1.25;;;-9.60;92.80;;;;;;2220073;64;20096;-37
2022/01/03 12:19:29;;;;;;;4.03;1.10;;;-9.70;93.10;;;;;;2217127;64;20107;-38
2022/01/03 12:22:07;;;;;;;1.88;0.65;;;-9.90;93.00;;;;;;2219934;64;20165;-35
2022/01/03 12:24:48;;;;;;;4.07;0.70;;;-10.10;93.00;;;;;;2220067;64;20107;-36
2022/01/03 12:27:30;;;;;;;5.90;1.73;;;-10.30;93.50;;;;;;2220036;64;20096;-35
2022/01/03 12:30:18;;;;;;;1.73;0.90;;;-10.70;93.70;;;;;;2223101;64;20093;-33
2022/01/03 12:33:07;;;;;;;6.43;1.90;;;-10.90;94.20;;;;;;2223154;64;20193;-37
2022/01/03 12:35:45;;;;;;;2.03;0.70;;;-11.20;94.50;;;;;;2220201;64;20160;-35
2022/01/03 12:38:23;;;;;;;3.13;0.87;;;-11.20;95.20;;;;;;2219969;64;20164;-40
2022/01/03 12:41:00;;;;;;;1.40;0.80;;;-11.40;95.00;;;;;;2223024;64;20107;-33
2022/01/03 12:43:39;;;;;;;1.93;0.90;;;-11.60;95.30;;;;;;2217115;64;20092;-33
2022/01/03 12:46:23;;;;;;;7.53;0.90;;;-11.70;95.80;;;;;;2220231;64;20167;-34
2022/01/03 12:48:56;;;;;;;3.33;1.00;;;-11.90;95.70;;;;;;2223330;64;20174;-35
2022/01/03 12:51:37;;;;;;;3.37;1.03;;;-12.10;96.10;;;;;;2216942;64;20103;-34
2022/01/03 12:54:13;;;;;;;2.70;0.83;;;-12.00;96.70;;;;;;2220126;64;20073;-32
2022/01/03 12:56:48;;;;;;;2.67;0.90;;;-12.10;96.60;;;;;;2216953;64;20135;-42
2022/01/03 12:59:24;;;;;;;4.87;1.23;;;-12.10;96.80;;;;;;2219866;64;20089;-32
2022/01/03 13:02:29;;;;;;;1.43;0.80;;;-12.20;96.80;;;;;;2216977;64;20168;-33
2022/01/03 13:05:06;;;;;;;0.68;0.32;;;-11.90;97.10;;;;;;2219093;64;20097;-33
2022/01/03 13:07:41;;;;;;;5.27;1.10;;;-11.90;97.40;;;;;;2222986;64;20167;-33
2022/01/03 13:10:20;;;;;;;1.50;0.63;;;-12.10;96.80;;;;;;2220152;64;20102;-36
2022/01/03 13:12:56;;;;;;;1.53;0.53;;;-12.20;97.10;;;;;;2223040;64;20177;-33
2022/01/03 13:15:32;;;;;;;5.17;0.80;;;-12.30;97.30;;;;;;2223244;64;20088;-34
2022/01/03 13:18:15;;;;;;;13.63;1.13;;;-12.20;97.90;;;;;;2222777;64;20104;-35
2022/01/03 13:21:24;;;;;;;5.70;1.20;;;-12.40;97.40;;;;;;2219962;64;20107;-33
2022/01/03 13:24:04;;;;;;;0.97;0.40;;;-12.50;97.60;;;;;;2217131;64;20163;-33
2022/01/03 13:26:59;;;;;;;2.43;0.77;;;-12.60;97.70;;;;;;2220545;64;20104;-33
2022/01/03 13:29:46;;;;;;;1.80;1.00;;;-12.60;98.00;;;;;;2222865;64;20564;-32
2022/01/03 13:32:27;;;;;;;1.48;0.77;;;-12.70;98.00;;;;;;2219884;64;20181;-45